sensor_id;sensor_type;location;lat;lon;timestamp;P1;durP1;ratioP1;P2;durP2;ratioP2
7263;SDS011;3673;52.480;13.348;2022-11-15T00:02:18;43.63;;;28.30;;
7263;SDS011;3673;52.480;13.348;2022-11-15T00:04:46;44.58;;;28.77;;
7263;SDS011;3673;52.480;13.348;2022-11-15T00:07:13;47.13;;;30.02;;
7263;SDS011;3673;52.480;13.348;2022-11-15T00:09:39;47.92;;;29.75;;
7263;SDS011;3673;52.480;13.348;2022-11-15T00:12:06;48.03;;;32.75;;
7263;SDS011;3673;52.480;13.348;2022-11-15T00:14:33;46.33;;;29.60;;
7263;SDS011;3673;52.480;13.348;2022-11-15T00:17:00;46.08;;;29.35;;
7263;SDS011;3673;52.480;13.348;2022-11-15T00:19:26;48.35;;;30.23;;
7263;SDS011;3673;52.480;13.348;2022-11-15T00:21:54;47.35;;;30.27;;
7263;SDS011;3673;52.480;13.348;2022-11-15T00:24:21;46.65;;;29.15;;
7263;SDS011;3673;52.480;13.348;2022-11-15T00:26:48;40.92;;;27.50;;
7263;SDS011;3673;52.480;13.348;2022-11-15T00:29:14;44.42;;;30.27;;
7263;SDS011;3673;52.480;13.348;2022-11-15T00:31:41;44.55;;;28.77;;
7263;SDS011;3673;52.480;13.348;2022-11-15T00:34:08;46.72;;;30.90;;
7263;SDS011;3673;52.480;13.348;2022-11-15T00:36:36;47.00;;;28.50;;
7263;SDS011;3673;52.480;13.348;2022-11-15T00:39:04;51.00;;;30.25;;
7263;SDS011;3673;52.480;13.348;2022-11-15T00:41:31;49.25;;;29.77;;
7263;SDS011;3673;52.480;13.348;2022-11-15T00:43:58;50.58;;;31.98;;
7263;SDS011;3673;52.480;13.348;2022-11-15T00:46:25;45.25;;;28.75;;
7263;SDS011;3673;52.480;13.348;2022-11-15T00:48:52;45.22;;;28.40;;
7263;SDS011;3673;52.480;13.348;2022-11-15T00:51:18;51.85;;;29.92;;
7263;SDS011;3673;52.480;13.348;2022-11-15T00:53:45;44.47;;;29.48;;
7263;SDS011;3673;52.480;13.348;2022-11-15T00:56:13;45.45;;;29.80;;
7263;SDS011;3673;52.480;13.348;2022-11-15T00:58:40;49.15;;;31.33;;
7263;SDS011;3673;52.480;13.348;2022-11-15T01:01:08;48.70;;;32.28;;
7263;SDS011;3673;52.480;13.348;2022-11-15T01:03:36;48.58;;;30.88;;
7263;SDS011;3673;52.480;13.348;2022-11-15T01:06:04;49.55;;;30.90;;
7263;SDS011;3673;52.480;13.348;2022-11-15T01:08:33;44.72;;;29.50;;
7263;SDS011;3673;52.480;13.348;2022-11-15T01:11:00;45.10;;;30.92;;
7263;SDS011;3673;52.480;13.348;2022-11-15T01:13:30;48.28;;;30.10;;
7263;SDS011;3673;52.480;13.348;2022-11-15T01:15:58;58.10;;;35.55;;
7263;SDS011;3673;52.480;13.348;2022-11-15T01:18:31;54.78;;;34.60;;
7263;SDS011;3673;52.480;13.348;2022-11-15T01:20:57;56.70;;;35.05;;
7263;SDS011;3673;52.480;13.348;2022-11-15T01:23:24;57.83;;;35.08;;
7263;SDS011;3673;52.480;13.348;2022-11-15T01:25:51;53.08;;;34.47;;
7263;SDS011;3673;52.480;13.348;2022-11-15T01:28:17;56.90;;;35.42;;
7263;SDS011;3673;52.480;13.348;2022-11-15T01:30:45;57.47;;;35.70;;
7263;SDS011;3673;52.480;13.348;2022-11-15T01:33:12;64.72;;;38.03;;
7263;SDS011;3673;52.480;13.348;2022-11-15T01:35:39;57.58;;;35.30;;
7263;SDS011;3673;52.480;13.348;2022-11-15T01:38:06;59.30;;;35.78;;
7263;SDS011;3673;52.480;13.348;2022-11-15T01:40:33;56.03;;;34.55;;
7263;SDS011;3673;52.480;13.348;2022-11-15T01:45:47;59.15;;;35.28;;
7263;SDS011;3673;52.480;13.348;2022-11-15T01:48:18;51.90;;;33.53;;
7263;SDS011;3673;52.480;13.348;2022-11-15T01:50:45;52.33;;;31.48;;
7263;SDS011;3673;52.480;13.348;2022-11-15T01:53:12;52.67;;;34.03;;
7263;SDS011;3673;52.480;13.348;2022-11-15T01:55:40;49.80;;;31.60;;
7263;SDS011;3673;52.480;13.348;2022-11-15T01:58:07;55.30;;;34.20;;
7263;SDS011;3673;52.480;13.348;2022-11-15T02:00:34;48.83;;;30.75;;
7263;SDS011;3673;52.480;13.348;2022-11-15T02:03:02;50.78;;;34.50;;
7263;SDS011;3673;52.480;13.348;2022-11-15T02:07:57;57.65;;;35.13;;
7263;SDS011;3673;52.480;13.348;2022-11-15T02:10:27;53.85;;;34.83;;
7263;SDS011;3673;52.480;13.348;2022-11-15T02:12:54;61.20;;;35.60;;
7263;SDS011;3673;52.480;13.348;2022-11-15T02:15:23;52.05;;;32.45;;
7263;SDS011;3673;52.480;13.348;2022-11-15T02:17:59;49.78;;;32.75;;
7263;SDS011;3673;52.480;13.348;2022-11-15T02:20:54;50.47;;;32.63;;
7263;SDS011;3673;52.480;13.348;2022-11-15T02:23:45;52.45;;;31.70;;
7263;SDS011;3673;52.480;13.348;2022-11-15T02:32:57;49.63;;;29.88;;
7263;SDS011;3673;52.480;13.348;2022-11-15T02:35:29;52.05;;;31.33;;
7263;SDS011;3673;52.480;13.348;2022-11-15T02:38:08;48.72;;;29.98;;
7263;SDS011;3673;52.480;13.348;2022-11-15T02:40:44;46.40;;;30.45;;
7263;SDS011;3673;52.480;13.348;2022-11-15T02:43:21;47.78;;;30.27;;
7263;SDS011;3673;52.480;13.348;2022-11-15T02:46:13;46.38;;;29.80;;
7263;SDS011;3673;52.480;13.348;2022-11-15T02:48:44;51.00;;;30.98;;
7263;SDS011;3673;52.480;13.348;2022-11-15T02:51:11;48.13;;;30.27;;
7263;SDS011;3673;52.480;13.348;2022-11-15T02:53:39;51.05;;;31.25;;
7263;SDS011;3673;52.480;13.348;2022-11-15T02:56:07;49.05;;;30.02;;
7263;SDS011;3673;52.480;13.348;2022-11-15T02:58:48;49.38;;;31.15;;
7263;SDS011;3673;52.480;13.348;2022-11-15T03:01:36;45.70;;;29.45;;
7263;SDS011;3673;52.480;13.348;2022-11-15T03:04:18;48.35;;;31.02;;
7263;SDS011;3673;52.480;13.348;2022-11-15T03:06:58;48.92;;;31.40;;
7263;SDS011;3673;52.480;13.348;2022-11-15T03:09:33;47.25;;;29.42;;
7263;SDS011;3673;52.480;13.348;2022-11-15T03:12:08;53.42;;;31.98;;
7263;SDS011;3673;52.480;13.348;2022-11-15T03:14:40;45.60;;;28.83;;
7263;SDS011;3673;52.480;13.348;2022-11-15T03:17:18;47.90;;;30.80;;
7263;SDS011;3673;52.480;13.348;2022-11-15T03:19:50;45.92;;;29.55;;
7263;SDS011;3673;52.480;13.348;2022-11-15T03:22:20;48.40;;;30.65;;
7263;SDS011;3673;52.480;13.348;2022-11-15T03:24:53;47.67;;;30.08;;
7263;SDS011;3673;52.480;13.348;2022-11-15T03:27:24;44.90;;;30.52;;
7263;SDS011;3673;52.480;13.348;2022-11-15T03:29:54;46.53;;;30.67;;
7263;SDS011;3673;52.480;13.348;2022-11-15T03:32:28;46.88;;;29.33;;
7263;SDS011;3673;52.480;13.348;2022-11-15T03:34:58;52.38;;;30.70;;
7263;SDS011;3673;52.480;13.348;2022-11-15T03:37:30;49.95;;;31.58;;
7263;SDS011;3673;52.480;13.348;2022-11-15T03:40:03;54.22;;;31.75;;
7263;SDS011;3673;52.480;13.348;2022-11-15T03:42:32;52.25;;;31.55;;
7263;SDS011;3673;52.480;13.348;2022-11-15T03:45:10;56.38;;;32.90;;
7263;SDS011;3673;52.480;13.348;2022-11-15T03:47:43;53.97;;;32.13;;
7263;SDS011;3673;52.480;13.348;2022-11-15T03:50:16;52.75;;;31.15;;
7263;SDS011;3673;52.480;13.348;2022-11-15T03:52:46;48.03;;;31.02;;
7263;SDS011;3673;52.480;13.348;2022-11-15T03:55:16;52.80;;;31.65;;
7263;SDS011;3673;52.480;13.348;2022-11-15T03:57:45;43.00;;;27.58;;
7263;SDS011;3673;52.480;13.348;2022-11-15T04:00:15;49.50;;;28.83;;
7263;SDS011;3673;52.480;13.348;2022-11-15T04:02:44;51.50;;;31.67;;
7263;SDS011;3673;52.480;13.348;2022-11-15T04:05:11;46.13;;;30.08;;
7263;SDS011;3673;52.480;13.348;2022-11-15T04:07:37;46.55;;;30.13;;
7263;SDS011;3673;52.480;13.348;2022-11-15T04:10:04;50.65;;;30.83;;
7263;SDS011;3673;52.480;13.348;2022-11-15T04:12:33;52.03;;;30.92;;
7263;SDS011;3673;52.480;13.348;2022-11-15T04:15:03;50.85;;;30.00;;
7263;SDS011;3673;52.480;13.348;2022-11-15T04:17:33;53.25;;;32.97;;
7263;SDS011;3673;52.480;13.348;2022-11-15T04:20:03;47.75;;;28.33;;
7263;SDS011;3673;52.480;13.348;2022-11-15T04:22:51;44.28;;;28.45;;
7263;SDS011;3673;52.480;13.348;2022-11-15T04:25:36;50.78;;;29.77;;
7263;SDS011;3673;52.480;13.348;2022-11-15T04:28:03;49.28;;;31.08;;
7263;SDS011;3673;52.480;13.348;2022-11-15T04:30:30;50.00;;;31.35;;
7263;SDS011;3673;52.480;13.348;2022-11-15T04:32:57;50.22;;;31.63;;
7263;SDS011;3673;52.480;13.348;2022-11-15T04:35:25;48.05;;;30.67;;
7263;SDS011;3673;52.480;13.348;2022-11-15T04:37:52;46.42;;;28.92;;
7263;SDS011;3673;52.480;13.348;2022-11-15T04:40:18;47.28;;;29.40;;
7263;SDS011;3673;52.480;13.348;2022-11-15T04:42:44;45.47;;;28.77;;
7263;SDS011;3673;52.480;13.348;2022-11-15T04:45:11;50.17;;;30.30;;
7263;SDS011;3673;52.480;13.348;2022-11-15T04:47:38;48.42;;;31.05;;
7263;SDS011;3673;52.480;13.348;2022-11-15T04:50:05;53.03;;;31.35;;
7263;SDS011;3673;52.480;13.348;2022-11-15T04:52:34;50.42;;;31.30;;
7263;SDS011;3673;52.480;13.348;2022-11-15T04:55:01;47.28;;;29.30;;
7263;SDS011;3673;52.480;13.348;2022-11-15T04:57:28;46.85;;;29.40;;
7263;SDS011;3673;52.480;13.348;2022-11-15T04:59:55;45.03;;;28.75;;
7263;SDS011;3673;52.480;13.348;2022-11-15T05:02:21;45.97;;;29.00;;
7263;SDS011;3673;52.480;13.348;2022-11-15T05:05:09;43.38;;;27.38;;
7263;SDS011;3673;52.480;13.348;2022-11-15T05:07:36;52.97;;;30.40;;
7263;SDS011;3673;52.480;13.348;2022-11-15T05:10:03;42.40;;;29.10;;
7263;SDS011;3673;52.480;13.348;2022-11-15T05:12:30;43.80;;;27.38;;
7263;SDS011;3673;52.480;13.348;2022-11-15T05:14:57;48.55;;;29.20;;
7263;SDS011;3673;52.480;13.348;2022-11-15T05:17:24;43.97;;;28.00;;
7263;SDS011;3673;52.480;13.348;2022-11-15T05:19:50;45.60;;;29.63;;
7263;SDS011;3673;52.480;13.348;2022-11-15T05:22:17;52.00;;;30.90;;
7263;SDS011;3673;52.480;13.348;2022-11-15T05:24:46;46.20;;;28.75;;
7263;SDS011;3673;52.480;13.348;2022-11-15T05:27:12;51.72;;;31.35;;
7263;SDS011;3673;52.480;13.348;2022-11-15T05:29:39;53.92;;;30.85;;
7263;SDS011;3673;52.480;13.348;2022-11-15T05:32:07;48.60;;;30.38;;
7263;SDS011;3673;52.480;13.348;2022-11-15T05:34:35;49.13;;;29.45;;
7263;SDS011;3673;52.480;13.348;2022-11-15T05:37:02;47.75;;;29.27;;
7263;SDS011;3673;52.480;13.348;2022-11-15T05:39:29;52.20;;;30.15;;
7263;SDS011;3673;52.480;13.348;2022-11-15T05:41:59;53.35;;;30.15;;
7263;SDS011;3673;52.480;13.348;2022-11-15T05:44:31;50.50;;;30.45;;
7263;SDS011;3673;52.480;13.348;2022-11-15T05:47:00;49.42;;;30.05;;
7263;SDS011;3673;52.480;13.348;2022-11-15T05:49:29;63.80;;;37.38;;
7263;SDS011;3673;52.480;13.348;2022-11-15T05:52:00;53.17;;;32.13;;
7263;SDS011;3673;52.480;13.348;2022-11-15T05:54:30;48.38;;;30.23;;
7263;SDS011;3673;52.480;13.348;2022-11-15T05:56:59;52.08;;;30.40;;
7263;SDS011;3673;52.480;13.348;2022-11-15T05:59:27;42.47;;;27.27;;
7263;SDS011;3673;52.480;13.348;2022-11-15T06:01:56;49.35;;;29.08;;
7263;SDS011;3673;52.480;13.348;2022-11-15T06:04:22;50.72;;;29.48;;
7263;SDS011;3673;52.480;13.348;2022-11-15T06:06:49;45.55;;;29.65;;
7263;SDS011;3673;52.480;13.348;2022-11-15T06:09:16;51.55;;;31.45;;
7263;SDS011;3673;52.480;13.348;2022-11-15T06:11:43;50.55;;;28.80;;
7263;SDS011;3673;52.480;13.348;2022-11-15T06:14:11;46.38;;;28.00;;
7263;SDS011;3673;52.480;13.348;2022-11-15T06:16:38;47.13;;;28.63;;
7263;SDS011;3673;52.480;13.348;2022-11-15T06:19:05;44.22;;;28.02;;
7263;SDS011;3673;52.480;13.348;2022-11-15T06:21:32;45.90;;;28.27;;
7263;SDS011;3673;52.480;13.348;2022-11-15T06:23:59;48.28;;;28.83;;
7263;SDS011;3673;52.480;13.348;2022-11-15T06:26:26;45.05;;;28.75;;
7263;SDS011;3673;52.480;13.348;2022-11-15T06:28:53;50.30;;;29.67;;
7263;SDS011;3673;52.480;13.348;2022-11-15T06:31:21;44.95;;;29.73;;
7263;SDS011;3673;52.480;13.348;2022-11-15T06:33:48;45.38;;;28.88;;
7263;SDS011;3673;52.480;13.348;2022-11-15T06:36:15;47.03;;;29.13;;
7263;SDS011;3673;52.480;13.348;2022-11-15T06:38:46;44.50;;;28.50;;
7263;SDS011;3673;52.480;13.348;2022-11-15T06:41:13;48.90;;;29.75;;
7263;SDS011;3673;52.480;13.348;2022-11-15T06:43:41;55.80;;;31.63;;
7263;SDS011;3673;52.480;13.348;2022-11-15T06:46:08;47.95;;;29.25;;
7263;SDS011;3673;52.480;13.348;2022-11-15T06:48:37;42.83;;;27.75;;
7263;SDS011;3673;52.480;13.348;2022-11-15T06:51:04;44.50;;;27.50;;
7263;SDS011;3673;52.480;13.348;2022-11-15T06:53:32;51.10;;;31.35;;
7263;SDS011;3673;52.480;13.348;2022-11-15T06:55:59;52.28;;;30.60;;
7263;SDS011;3673;52.480;13.348;2022-11-15T06:58:27;45.38;;;28.65;;
7263;SDS011;3673;52.480;13.348;2022-11-15T07:00:57;46.85;;;29.55;;
7263;SDS011;3673;52.480;13.348;2022-11-15T07:03:25;47.08;;;28.83;;
7263;SDS011;3673;52.480;13.348;2022-11-15T07:05:54;48.00;;;28.70;;
7263;SDS011;3673;52.480;13.348;2022-11-15T07:08:22;44.83;;;29.25;;
7263;SDS011;3673;52.480;13.348;2022-11-15T07:10:53;46.45;;;30.30;;
7263;SDS011;3673;52.480;13.348;2022-11-15T07:13:20;44.22;;;28.77;;
7263;SDS011;3673;52.480;13.348;2022-11-15T07:15:51;46.45;;;28.50;;
7263;SDS011;3673;52.480;13.348;2022-11-15T07:18:18;44.80;;;28.73;;
7263;SDS011;3673;52.480;13.348;2022-11-15T07:20:44;50.22;;;31.00;;
7263;SDS011;3673;52.480;13.348;2022-11-15T07:23:13;45.83;;;28.98;;
7263;SDS011;3673;52.480;13.348;2022-11-15T07:25:40;52.25;;;31.27;;
7263;SDS011;3673;52.480;13.348;2022-11-15T07:28:06;56.17;;;30.52;;
7263;SDS011;3673;52.480;13.348;2022-11-15T07:30:33;51.00;;;30.50;;
7263;SDS011;3673;52.480;13.348;2022-11-15T07:33:00;47.05;;;28.92;;
7263;SDS011;3673;52.480;13.348;2022-11-15T07:35:28;49.63;;;29.60;;
7263;SDS011;3673;52.480;13.348;2022-11-15T07:37:56;44.83;;;29.33;;
7263;SDS011;3673;52.480;13.348;2022-11-15T07:40:25;45.53;;;29.60;;
7263;SDS011;3673;52.480;13.348;2022-11-15T07:42:53;50.53;;;31.48;;
7263;SDS011;3673;52.480;13.348;2022-11-15T07:45:25;54.75;;;31.58;;
7263;SDS011;3673;52.480;13.348;2022-11-15T07:47:52;43.05;;;27.92;;
7263;SDS011;3673;52.480;13.348;2022-11-15T07:50:21;45.13;;;28.10;;
7263;SDS011;3673;52.480;13.348;2022-11-15T07:52:52;54.85;;;33.75;;
7263;SDS011;3673;52.480;13.348;2022-11-15T07:55:20;47.30;;;29.33;;
7263;SDS011;3673;52.480;13.348;2022-11-15T07:57:49;46.25;;;29.10;;
7263;SDS011;3673;52.480;13.348;2022-11-15T08:00:16;40.60;;;26.67;;
7263;SDS011;3673;52.480;13.348;2022-11-15T08:02:44;46.70;;;29.17;;
7263;SDS011;3673;52.480;13.348;2022-11-15T08:05:11;41.17;;;27.50;;
7263;SDS011;3673;52.480;13.348;2022-11-15T08:07:38;43.80;;;28.50;;
7263;SDS011;3673;52.480;13.348;2022-11-15T08:10:05;42.05;;;28.15;;
7263;SDS011;3673;52.480;13.348;2022-11-15T08:12:33;46.05;;;27.20;;
7263;SDS011;3673;52.480;13.348;2022-11-15T08:15:02;45.95;;;27.55;;
7263;SDS011;3673;52.480;13.348;2022-11-15T08:17:30;45.78;;;27.65;;
7263;SDS011;3673;52.480;13.348;2022-11-15T08:19:58;50.53;;;28.58;;
7263;SDS011;3673;52.480;13.348;2022-11-15T08:22:25;45.92;;;29.73;;
7263;SDS011;3673;52.480;13.348;2022-11-15T08:24:52;48.72;;;29.30;;
7263;SDS011;3673;52.480;13.348;2022-11-15T08:27:20;49.00;;;29.30;;
7263;SDS011;3673;52.480;13.348;2022-11-15T08:29:47;45.67;;;27.92;;
7263;SDS011;3673;52.480;13.348;2022-11-15T08:32:16;43.90;;;28.17;;
7263;SDS011;3673;52.480;13.348;2022-11-15T08:34:43;41.97;;;28.13;;
7263;SDS011;3673;52.480;13.348;2022-11-15T08:37:10;43.38;;;29.27;;
7263;SDS011;3673;52.480;13.348;2022-11-15T08:39:36;53.70;;;33.67;;
7263;SDS011;3673;52.480;13.348;2022-11-15T08:42:03;46.67;;;28.55;;
7263;SDS011;3673;52.480;13.348;2022-11-15T08:44:30;41.42;;;26.70;;
7263;SDS011;3673;52.480;13.348;2022-11-15T08:46:57;41.63;;;27.08;;
7263;SDS011;3673;52.480;13.348;2022-11-15T08:49:25;40.58;;;26.42;;
7263;SDS011;3673;52.480;13.348;2022-11-15T08:51:52;39.40;;;26.05;;
7263;SDS011;3673;52.480;13.348;2022-11-15T08:54:19;42.22;;;27.20;;
7263;SDS011;3673;52.480;13.348;2022-11-15T08:56:46;40.80;;;25.13;;
7263;SDS011;3673;52.480;13.348;2022-11-15T08:59:13;35.95;;;25.45;;
7263;SDS011;3673;52.480;13.348;2022-11-15T09:01:40;44.50;;;26.08;;
7263;SDS011;3673;52.480;13.348;2022-11-15T09:04:07;43.15;;;25.25;;
7263;SDS011;3673;52.480;13.348;2022-11-15T09:06:35;40.65;;;25.80;;
7263;SDS011;3673;52.480;13.348;2022-11-15T09:09:02;37.05;;;25.80;;
7263;SDS011;3673;52.480;13.348;2022-11-15T09:11:29;41.60;;;24.67;;
7263;SDS011;3673;52.480;13.348;2022-11-15T09:13:56;35.45;;;23.85;;
7263;SDS011;3673;52.480;13.348;2022-11-15T09:16:23;34.45;;;22.00;;
7263;SDS011;3673;52.480;13.348;2022-11-15T09:18:49;34.22;;;22.92;;
7263;SDS011;3673;52.480;13.348;2022-11-15T09:21:16;36.08;;;23.80;;
7263;SDS011;3673;52.480;13.348;2022-11-15T09:23:44;35.55;;;23.17;;
7263;SDS011;3673;52.480;13.348;2022-11-15T09:26:11;36.10;;;22.25;;
7263;SDS011;3673;52.480;13.348;2022-11-15T09:28:39;35.28;;;22.85;;
7263;SDS011;3673;52.480;13.348;2022-11-15T09:31:07;34.00;;;23.13;;
7263;SDS011;3673;52.480;13.348;2022-11-15T09:33:34;33.08;;;21.30;;
7263;SDS011;3673;52.480;13.348;2022-11-15T09:36:03;30.13;;;20.55;;
7263;SDS011;3673;52.480;13.348;2022-11-15T09:38:32;31.63;;;21.58;;
7263;SDS011;3673;52.480;13.348;2022-11-15T09:44:16;31.10;;;21.10;;
7263;SDS011;3673;52.480;13.348;2022-11-15T09:46:58;36.67;;;22.80;;
7263;SDS011;3673;52.480;13.348;2022-11-15T09:49:36;32.28;;;20.15;;
7263;SDS011;3673;52.480;13.348;2022-11-15T09:52:03;28.60;;;19.63;;
7263;SDS011;3673;52.480;13.348;2022-11-15T09:54:30;26.27;;;18.30;;
7263;SDS011;3673;52.480;13.348;2022-11-15T09:57:04;27.02;;;16.90;;
7263;SDS011;3673;52.480;13.348;2022-11-15T09:59:43;31.00;;;19.17;;
7263;SDS011;3673;52.480;13.348;2022-11-15T10:02:40;26.83;;;17.83;;
7263;SDS011;3673;52.480;13.348;2022-11-15T10:05:22;27.08;;;18.35;;
7263;SDS011;3673;52.480;13.348;2022-11-15T10:07:54;25.80;;;17.00;;
7263;SDS011;3673;52.480;13.348;2022-11-15T10:10:29;26.85;;;16.42;;
7263;SDS011;3673;52.480;13.348;2022-11-15T10:13:06;27.63;;;18.52;;
7263;SDS011;3673;52.480;13.348;2022-11-15T10:15:39;25.63;;;16.70;;
7263;SDS011;3673;52.480;13.348;2022-11-15T10:18:16;25.05;;;15.65;;
7263;SDS011;3673;52.480;13.348;2022-11-15T10:20:54;22.90;;;16.48;;
7263;SDS011;3673;52.480;13.348;2022-11-15T10:23:25;29.23;;;19.58;;
7263;SDS011;3673;52.480;13.348;2022-11-15T10:25:54;25.48;;;17.23;;
7263;SDS011;3673;52.480;13.348;2022-11-15T10:28:27;24.67;;;16.90;;
7263;SDS011;3673;52.480;13.348;2022-11-15T10:30:56;21.85;;;15.48;;
7263;SDS011;3673;52.480;13.348;2022-11-15T10:33:26;25.20;;;16.88;;
7263;SDS011;3673;52.480;13.348;2022-11-15T10:36:14;25.02;;;17.08;;
7263;SDS011;3673;52.480;13.348;2022-11-15T10:41:38;26.83;;;16.70;;
7263;SDS011;3673;52.480;13.348;2022-11-15T10:44:17;22.60;;;16.23;;
7263;SDS011;3673;52.480;13.348;2022-11-15T10:46:49;21.77;;;15.55;;
7263;SDS011;3673;52.480;13.348;2022-11-15T10:49:52;22.73;;;15.30;;
7263;SDS011;3673;52.480;13.348;2022-11-15T10:52:33;21.13;;;15.30;;
7263;SDS011;3673;52.480;13.348;2022-11-15T10:55:03;21.10;;;14.85;;
7263;SDS011;3673;52.480;13.348;2022-11-15T10:57:49;21.58;;;15.68;;
7263;SDS011;3673;52.480;13.348;2022-11-15T11:00:34;29.20;;;17.13;;
7263;SDS011;3673;52.480;13.348;2022-11-15T11:03:04;21.65;;;15.75;;
7263;SDS011;3673;52.480;13.348;2022-11-15T11:05:44;24.15;;;16.98;;
7263;SDS011;3673;52.480;13.348;2022-11-15T11:08:20;20.83;;;15.40;;
7263;SDS011;3673;52.480;13.348;2022-11-15T11:10:53;24.30;;;15.30;;
7263;SDS011;3673;52.480;13.348;2022-11-15T11:13:22;22.77;;;15.13;;
7263;SDS011;3673;52.480;13.348;2022-11-15T11:15:54;23.08;;;15.43;;
7263;SDS011;3673;52.480;13.348;2022-11-15T11:18:43;20.75;;;15.15;;
7263;SDS011;3673;52.480;13.348;2022-11-15T11:21:22;21.92;;;14.57;;
7263;SDS011;3673;52.480;13.348;2022-11-15T11:23:58;18.23;;;13.50;;
7263;SDS011;3673;52.480;13.348;2022-11-15T11:26:35;20.80;;;14.77;;
7263;SDS011;3673;52.480;13.348;2022-11-15T11:29:14;21.88;;;16.02;;
7263;SDS011;3673;52.480;13.348;2022-11-15T11:31:54;20.02;;;15.15;;
7263;SDS011;3673;52.480;13.348;2022-11-15T11:34:34;20.90;;;14.93;;
7263;SDS011;3673;52.480;13.348;2022-11-15T11:37:14;23.77;;;14.18;;
7263;SDS011;3673;52.480;13.348;2022-11-15T11:39:53;21.07;;;14.57;;
7263;SDS011;3673;52.480;13.348;2022-11-15T11:42:36;23.70;;;15.18;;
7263;SDS011;3673;52.480;13.348;2022-11-15T11:45:15;20.63;;;13.85;;
7263;SDS011;3673;52.480;13.348;2022-11-15T11:47:54;21.58;;;15.90;;
7263;SDS011;3673;52.480;13.348;2022-11-15T11:50:29;18.55;;;13.23;;
7263;SDS011;3673;52.480;13.348;2022-11-15T11:52:59;20.23;;;14.18;;
7263;SDS011;3673;52.480;13.348;2022-11-15T11:55:33;19.10;;;13.50;;
7263;SDS011;3673;52.480;13.348;2022-11-15T11:58:05;17.83;;;12.82;;
7263;SDS011;3673;52.480;13.348;2022-11-15T12:00:40;23.60;;;13.90;;
7263;SDS011;3673;52.480;13.348;2022-11-15T12:03:18;19.50;;;13.70;;
7263;SDS011;3673;52.480;13.348;2022-11-15T12:05:51;16.40;;;13.23;;
7263;SDS011;3673;52.480;13.348;2022-11-15T12:08:29;17.70;;;13.13;;
7263;SDS011;3673;52.480;13.348;2022-11-15T12:11:08;19.27;;;13.38;;
7263;SDS011;3673;52.480;13.348;2022-11-15T12:13:40;18.63;;;13.00;;
7263;SDS011;3673;52.480;13.348;2022-11-15T12:16:11;23.13;;;13.40;;
7263;SDS011;3673;52.480;13.348;2022-11-15T12:18:46;21.83;;;12.98;;
7263;SDS011;3673;52.480;13.348;2022-11-15T12:21:16;15.77;;;12.32;;
7263;SDS011;3673;52.480;13.348;2022-11-15T12:23:54;18.13;;;13.27;;
7263;SDS011;3673;52.480;13.348;2022-11-15T12:26:30;18.63;;;13.07;;
7263;SDS011;3673;52.480;13.348;2022-11-15T12:29:03;18.85;;;13.90;;
7263;SDS011;3673;52.480;13.348;2022-11-15T12:31:37;17.33;;;12.82;;
7263;SDS011;3673;52.480;13.348;2022-11-15T12:34:15;21.90;;;14.75;;
7263;SDS011;3673;52.480;13.348;2022-11-15T12:40:18;19.48;;;13.38;;
7263;SDS011;3673;52.480;13.348;2022-11-15T12:46:11;22.35;;;14.77;;
7263;SDS011;3673;52.480;13.348;2022-11-15T12:48:49;17.73;;;13.32;;
7263;SDS011;3673;52.480;13.348;2022-11-15T12:51:22;21.02;;;14.30;;
7263;SDS011;3673;52.480;13.348;2022-11-15T12:57:44;18.73;;;13.23;;
7263;SDS011;3673;52.480;13.348;2022-11-15T13:03:25;20.83;;;15.07;;
7263;SDS011;3673;52.480;13.348;2022-11-15T13:05:58;23.92;;;14.98;;
7263;SDS011;3673;52.480;13.348;2022-11-15T13:08:45;19.98;;;14.00;;
7263;SDS011;3673;52.480;13.348;2022-11-15T13:20:17;21.77;;;14.48;;
7263;SDS011;3673;52.480;13.348;2022-11-15T13:25:02;23.13;;;15.15;;
7263;SDS011;3673;52.480;13.348;2022-11-15T13:27:29;20.55;;;14.70;;
7263;SDS011;3673;52.480;13.348;2022-11-15T13:29:57;25.45;;;16.13;;
7263;SDS011;3673;52.480;13.348;2022-11-15T13:32:24;19.13;;;14.77;;
7263;SDS011;3673;52.480;13.348;2022-11-15T13:34:51;24.45;;;16.25;;
7263;SDS011;3673;52.480;13.348;2022-11-15T13:37:30;23.15;;;16.20;;
7263;SDS011;3673;52.480;13.348;2022-11-15T13:42:52;30.25;;;17.88;;
7263;SDS011;3673;52.480;13.348;2022-11-15T13:45:20;26.90;;;16.25;;
7263;SDS011;3673;52.480;13.348;2022-11-15T13:47:53;22.13;;;15.85;;
7263;SDS011;3673;52.480;13.348;2022-11-15T13:50:24;21.27;;;15.45;;
7263;SDS011;3673;52.480;13.348;2022-11-15T13:52:55;26.27;;;15.27;;
7263;SDS011;3673;52.480;13.348;2022-11-15T13:55:28;22.13;;;15.93;;
7263;SDS011;3673;52.480;13.348;2022-11-15T13:57:58;24.92;;;16.65;;
7263;SDS011;3673;52.480;13.348;2022-11-15T14:00:32;26.05;;;15.77;;
7263;SDS011;3673;52.480;13.348;2022-11-15T14:03:05;23.98;;;15.10;;
7263;SDS011;3673;52.480;13.348;2022-11-15T14:05:42;26.23;;;16.13;;
7263;SDS011;3673;52.480;13.348;2022-11-15T14:08:13;25.77;;;17.10;;
7263;SDS011;3673;52.480;13.348;2022-11-15T14:14:02;22.40;;;15.60;;
7263;SDS011;3673;52.480;13.348;2022-11-15T14:16:38;25.65;;;15.98;;
7263;SDS011;3673;52.480;13.348;2022-11-15T14:19:09;21.20;;;14.52;;
7263;SDS011;3673;52.480;13.348;2022-11-15T14:24:37;23.00;;;15.25;;
7263;SDS011;3673;52.480;13.348;2022-11-15T14:27:18;25.48;;;15.77;;
7263;SDS011;3673;52.480;13.348;2022-11-15T14:29:50;18.70;;;14.40;;
7263;SDS011;3673;52.480;13.348;2022-11-15T14:32:19;22.40;;;14.68;;
7263;SDS011;3673;52.480;13.348;2022-11-15T14:34:48;22.50;;;15.02;;
7263;SDS011;3673;52.480;13.348;2022-11-15T14:37:21;23.13;;;14.52;;
7263;SDS011;3673;52.480;13.348;2022-11-15T14:39:50;25.17;;;15.13;;
7263;SDS011;3673;52.480;13.348;2022-11-15T14:42:18;21.15;;;15.63;;
7263;SDS011;3673;52.480;13.348;2022-11-15T14:44:47;24.90;;;14.45;;
7263;SDS011;3673;52.480;13.348;2022-11-15T14:47:16;23.02;;;15.00;;
7263;SDS011;3673;52.480;13.348;2022-11-15T14:49:43;22.15;;;14.57;;
7263;SDS011;3673;52.480;13.348;2022-11-15T14:52:19;21.27;;;14.45;;
7263;SDS011;3673;52.480;13.348;2022-11-15T14:54:53;23.60;;;15.48;;
7263;SDS011;3673;52.480;13.348;2022-11-15T14:57:21;19.45;;;14.25;;
7263;SDS011;3673;52.480;13.348;2022-11-15T14:59:48;23.15;;;13.63;;
7263;SDS011;3673;52.480;13.348;2022-11-15T15:02:17;20.65;;;14.68;;
7263;SDS011;3673;52.480;13.348;2022-11-15T15:04:46;20.63;;;14.07;;
7263;SDS011;3673;52.480;13.348;2022-11-15T15:07:15;20.73;;;13.63;;
7263;SDS011;3673;52.480;13.348;2022-11-15T15:09:43;18.25;;;13.70;;
7263;SDS011;3673;52.480;13.348;2022-11-15T15:12:13;23.50;;;15.70;;
7263;SDS011;3673;52.480;13.348;2022-11-15T15:14:43;19.00;;;13.45;;
7263;SDS011;3673;52.480;13.348;2022-11-15T15:17:10;19.92;;;14.90;;
7263;SDS011;3673;52.480;13.348;2022-11-15T15:19:38;22.17;;;15.75;;
7263;SDS011;3673;52.480;13.348;2022-11-15T15:22:05;23.30;;;16.27;;
7263;SDS011;3673;52.480;13.348;2022-11-15T15:24:38;23.58;;;15.25;;
7263;SDS011;3673;52.480;13.348;2022-11-15T15:27:05;26.45;;;15.95;;
7263;SDS011;3673;52.480;13.348;2022-11-15T15:29:32;26.50;;;16.05;;
7263;SDS011;3673;52.480;13.348;2022-11-15T15:31:59;26.77;;;17.33;;
7263;SDS011;3673;52.480;13.348;2022-11-15T15:34:26;25.42;;;17.55;;
7263;SDS011;3673;52.480;13.348;2022-11-15T15:37:07;26.48;;;16.73;;
7263;SDS011;3673;52.480;13.348;2022-11-15T15:39:44;26.55;;;16.38;;
7263;SDS011;3673;52.480;13.348;2022-11-15T15:42:11;26.08;;;16.08;;
7263;SDS011;3673;52.480;13.348;2022-11-15T15:44:38;24.35;;;17.05;;
7263;SDS011;3673;52.480;13.348;2022-11-15T15:47:07;26.40;;;18.23;;